createdAt,value
2016-06-05T18:40:30.324Z,27.35
2016-06-05T18:41:30.265Z,27.33
2016-06-05T18:42:30.251Z,27.35
2016-06-05T18:43:30.254Z,27.29
2016-06-05T18:44:30.240Z,27.29
2016-06-05T18:45:30.243Z,27.2
2016-06-05T18:46:30.231Z,27.14
2016-06-05T18:47:30.233Z,27.19
2016-06-05T18:48:30.220Z,27.19
2016-06-05T18:49:30.066Z,27.23
2016-06-05T18:50:30.225Z,27.14
2016-06-05T18:51:30.057Z,27.11
2016-06-05T18:52:30.059Z,27.05
2016-06-05T18:53:30.203Z,26.99
2016-06-05T18:54:30.190Z,26.95
2016-06-05T18:55:30.192Z,26.86
2016-06-05T18:56:30.180Z,26.83
2016-06-05T18:57:30.183Z,26.87
2016-06-05T18:58:30.591Z,26.8
2016-06-05T18:59:30.016Z,26.76
2016-06-05T19:00:29.862Z,26.77
2016-06-05T19:01:30.177Z,26.74
2016-06-05T19:02:30.180Z,26.67
2016-06-05T19:03:30.010Z,26.68
2016-06-05T19:04:29.998Z,26.61
2016-06-05T19:05:29.876Z,26.59
2016-06-05T19:06:30.004Z,26.55
2016-06-05T19:07:30.132Z,26.54
2016-06-05T19:08:29.977Z,26.46
2016-06-05T19:09:29.996Z,26.47
2016-06-05T19:10:30.140Z,26.52
2016-06-05T19:11:29.813Z,26.4
2016-06-05T19:12:30.113Z,26.39
2016-06-05T19:13:31.037Z,26.43
2016-06-05T19:14:30.118Z,26.37
2016-06-05T19:15:30.106Z,26.28
2016-06-05T19:16:29.937Z,26.28
2016-06-05T19:17:30.127Z,26.35
2016-06-05T19:18:29.926Z,26.24
2016-06-05T19:19:30.084Z,26.28
2016-06-05T19:20:30.072Z,26.09
2016-06-05T19:21:30.090Z,26.15
2016-06-05T19:22:29.952Z,26.05
2016-06-05T19:23:30.050Z,26.04
2016-06-05T19:24:30.036Z,25.97
2016-06-05T19:25:30.039Z,25.98
2016-06-05T19:26:30.041Z,25.9
2016-06-05T19:27:30.028Z,25.91
2016-06-05T19:28:30.047Z,25.8
2016-06-05T19:29:30.034Z,25.82
2016-06-05T19:30:30.021Z,25.67
2016-06-05T19:31:30.008Z,25.62
2016-06-05T19:32:29.995Z,25.61
2016-06-05T19:33:30.013Z,25.57
2016-06-05T19:34:30.000Z,25.53
2016-06-05T19:35:29.847Z,25.57
2016-06-05T19:36:29.974Z,25.52
2016-06-05T19:37:29.977Z,25.42
2016-06-05T19:38:29.979Z,25.47
2016-06-05T19:39:29.967Z,25.46
2016-06-05T19:40:29.954Z,25.42
2016-06-05T19:41:29.941Z,25.35
2016-06-05T19:42:29.928Z,25.35
2016-06-05T19:43:29.790Z,25.43
2016-06-05T19:44:29.934Z,25.34
2016-06-05T19:45:29.921Z,25.28
2016-06-05T19:46:29.924Z,25.34
2016-06-05T19:47:29.910Z,25.37
2016-06-05T19:48:29.897Z,25.3
2016-06-05T19:49:29.915Z,25.3
2016-06-05T19:50:29.887Z,25.17
2016-06-05T19:51:29.890Z,25.28
2016-06-05T19:52:29.878Z,25.12
2016-06-05T19:53:29.880Z,25.09
2016-06-05T19:54:29.866Z,25
2016-06-05T19:55:29.869Z,25.02
2016-06-05T19:56:29.873Z,24.94
2016-06-05T19:57:29.859Z,24.98
2016-06-05T19:58:29.862Z,25.01
2016-06-05T19:59:29.849Z,24.92
2016-06-05T20:00:29.835Z,24.97
2016-06-05T20:01:29.855Z,24.95
2016-06-05T20:02:29.825Z,24.9
2016-06-05T20:03:29.875Z,24.79
2016-06-05T20:04:29.830Z,24.87
2016-06-05T20:05:29.803Z,24.75
2016-06-05T20:06:29.805Z,24.67
2016-06-05T20:07:29.793Z,24.68
2016-06-05T20:08:29.795Z,24.67
2016-06-05T20:09:29.813Z,24.61
2016-06-05T20:10:29.784Z,24.63
2016-06-05T20:11:29.772Z,24.53
2016-06-05T20:12:29.759Z,24.61
2016-06-05T20:13:29.621Z,24.52
2016-06-05T20:14:29.748Z,24.54
2016-06-05T20:15:29.799Z,24.52
2016-06-05T20:16:29.738Z,24.39
2016-06-05T20:17:29.726Z,24.42
2016-06-05T20:18:29.728Z,24.37
2016-06-05T20:19:29.730Z,24.34
2016-06-05T20:20:29.718Z,24.27
2016-06-05T20:21:29.706Z,24.34
2016-06-05T20:22:29.692Z,24.26
2016-06-05T20:23:29.553Z,24.17
2016-06-05T20:24:29.682Z,24.13
2016-06-05T20:25:29.669Z,24.05
2016-06-05T20:26:29.686Z,24.02
2016-06-05T20:27:29.674Z,23.94
2016-06-05T20:28:29.709Z,23.98
2016-06-05T20:29:29.648Z,24.01
2016-06-05T20:30:29.636Z,23.92
2016-06-05T20:31:29.638Z,23.86
2016-06-05T20:32:29.624Z,23.87
2016-06-05T20:33:29.627Z,23.87
2016-06-05T20:34:29.459Z,23.79
2016-06-05T20:35:29.461Z,23.77
2016-06-05T20:36:29.604Z,23.72
2016-06-05T20:43:09.046Z,23.57
2016-06-05T20:43:21.483Z,23.62
2016-06-05T20:44:22.424Z,23.58
2016-06-05T20:45:21.613Z,23.55
2016-06-05T20:46:21.615Z,23.47
2016-06-05T20:47:21.603Z,23.5
2016-06-05T20:48:21.590Z,23.49
2016-06-05T20:49:21.593Z,23.45
2016-06-05T20:50:21.580Z,23.43
2016-06-05T20:51:21.614Z,23.39
2016-06-05T20:52:21.570Z,23.32
2016-06-05T20:53:21.557Z,23.32
2016-06-05T20:54:21.559Z,23.27
2016-06-05T20:55:21.390Z,23.27
2016-06-05T20:56:21.534Z,23.15
